sensor_id;sensor_type;location;lat;lon;timestamp;temperature;humidity
43673;DHT22;41723;49.326;8.430;2023-10-09T00:01:27;16.70;99.90
43673;DHT22;41723;49.326;8.430;2023-10-09T00:03:53;16.50;99.90
43673;DHT22;41723;49.326;8.430;2023-10-09T00:06:21;16.40;99.90
43673;DHT22;41723;49.326;8.430;2023-10-09T00:08:56;16.50;99.90
43673;DHT22;41723;49.326;8.430;2023-10-09T00:11:23;16.50;99.90
43673;DHT22;41723;49.326;8.430;2023-10-09T00:13:55;16.60;99.90
43673;DHT22;41723;49.326;8.430;2023-10-09T00:16:24;16.60;99.90
43673;DHT22;41723;49.326;8.430;2023-10-09T00:19:02;16.50;99.90
43673;DHT22;41723;49.326;8.430;2023-10-09T00:21:48;16.50;99.90
43673;DHT22;41723;49.326;8.430;2023-10-09T00:24:14;16.50;99.90
43673;DHT22;41723;49.326;8.430;2023-10-09T00:26:45;16.50;99.90
43673;DHT22;41723;49.326;8.430;2023-10-09T00:29:12;16.50;99.90
43673;DHT22;41723;49.326;8.430;2023-10-09T00:31:50;16.50;99.90
43673;DHT22;41723;49.326;8.430;2023-10-09T00:34:17;16.40;99.90
43673;DHT22;41723;49.326;8.430;2023-10-09T00:36:46;16.30;99.90
43673;DHT22;41723;49.326;8.430;2023-10-09T00:39:19;16.40;99.90
43673;DHT22;41723;49.326;8.430;2023-10-09T00:41:59;16.40;99.90
43673;DHT22;41723;49.326;8.430;2023-10-09T00:44:26;16.40;99.90
43673;DHT22;41723;49.326;8.430;2023-10-09T00:47:04;16.40;99.90
43673;DHT22;41723;49.326;8.430;2023-10-09T00:49:36;16.40;99.90
43673;DHT22;41723;49.326;8.430;2023-10-09T00:52:07;16.40;99.90
43673;DHT22;41723;49.326;8.430;2023-10-09T00:54:42;16.40;99.90
43673;DHT22;41723;49.326;8.430;2023-10-09T00:57:09;16.30;99.90
43673;DHT22;41723;49.326;8.430;2023-10-09T00:59:38;16.20;99.90
43673;DHT22;41723;49.326;8.430;2023-10-09T01:02:08;16.20;99.90
43673;DHT22;41723;49.326;8.430;2023-10-09T01:04:35;16.20;99.90
43673;DHT22;41723;49.326;8.430;2023-10-09T01:07:07;16.10;99.90
43673;DHT22;41723;49.326;8.430;2023-10-09T01:09:46;16.20;99.90
43673;DHT22;41723;49.326;8.430;2023-10-09T01:12:15;16.20;99.90
43673;DHT22;41723;49.326;8.430;2023-10-09T01:14:44;16.10;99.90
43673;DHT22;41723;49.326;8.430;2023-10-09T01:17:09;16.10;99.90
43673;DHT22;41723;49.326;8.430;2023-10-09T01:19:36;16.00;99.90
43673;DHT22;41723;49.326;8.430;2023-10-09T01:22:02;16.10;99.90
43673;DHT22;41723;49.326;8.430;2023-10-09T01:24:38;16.00;99.90
43673;DHT22;41723;49.326;8.430;2023-10-09T01:27:04;16.00;99.90
43673;DHT22;41723;49.326;8.430;2023-10-09T01:29:31;16.00;99.90
43673;DHT22;41723;49.326;8.430;2023-10-09T01:31:56;15.90;99.90
43673;DHT22;41723;49.326;8.430;2023-10-09T01:34:26;16.00;99.90
43673;DHT22;41723;49.326;8.430;2023-10-09T01:37:08;16.00;99.90
43673;DHT22;41723;49.326;8.430;2023-10-09T01:39:42;16.00;99.90
43673;DHT22;41723;49.326;8.430;2023-10-09T01:42:10;16.00;99.90
43673;DHT22;41723;49.326;8.430;2023-10-09T01:44:36;15.90;99.90
43673;DHT22;41723;49.326;8.430;2023-10-09T01:47:08;15.90;99.90
43673;DHT22;41723;49.326;8.430;2023-10-09T01:49:42;15.90;99.90
43673;DHT22;41723;49.326;8.430;2023-10-09T01:52:09;15.90;99.90
43673;DHT22;41723;49.326;8.430;2023-10-09T01:54:38;15.90;99.90
43673;DHT22;41723;49.326;8.430;2023-10-09T01:57:04;15.90;99.90
43673;DHT22;41723;49.326;8.430;2023-10-09T01:59:34;15.90;99.90
43673;DHT22;41723;49.326;8.430;2023-10-09T02:02:06;15.90;99.90
43673;DHT22;41723;49.326;8.430;2023-10-09T02:04:59;15.80;99.90
43673;DHT22;41723;49.326;8.430;2023-10-09T02:07:40;15.80;99.90
43673;DHT22;41723;49.326;8.430;2023-10-09T02:10:11;15.70;99.90
43673;DHT22;41723;49.326;8.430;2023-10-09T02:12:56;15.70;99.90
43673;DHT22;41723;49.326;8.430;2023-10-09T02:15:28;15.70;99.90
43673;DHT22;41723;49.326;8.430;2023-10-09T02:20:48;15.80;99.90
43673;DHT22;41723;49.326;8.430;2023-10-09T02:23:21;15.70;99.90
43673;DHT22;41723;49.326;8.430;2023-10-09T02:25:55;15.70;99.90
43673;DHT22;41723;49.326;8.430;2023-10-09T02:28:21;15.80;99.90
43673;DHT22;41723;49.326;8.430;2023-10-09T02:30:47;15.80;99.90
43673;DHT22;41723;49.326;8.430;2023-10-09T02:33:13;15.80;99.90
43673;DHT22;41723;49.326;8.430;2023-10-09T02:35:44;15.80;99.90
43673;DHT22;41723;49.326;8.430;2023-10-09T02:38:10;15.90;99.90
43673;DHT22;41723;49.326;8.430;2023-10-09T02:40:40;15.80;99.90
43673;DHT22;41723;49.326;8.430;2023-10-09T02:43:26;15.80;99.90
43673;DHT22;41723;49.326;8.430;2023-10-09T02:45:52;15.80;99.90
43673;DHT22;41723;49.326;8.430;2023-10-09T02:48:18;15.80;99.90
43673;DHT22;41723;49.326;8.430;2023-10-09T02:50:50;15.80;99.90
43673;DHT22;41723;49.326;8.430;2023-10-09T02:53:16;15.90;99.90
43673;DHT22;41723;49.326;8.430;2023-10-09T02:55:45;15.90;99.90
43673;DHT22;41723;49.326;8.430;2023-10-09T02:58:29;15.70;99.90
43673;DHT22;41723;49.326;8.430;2023-10-09T03:00:57;15.80;99.90
43673;DHT22;41723;49.326;8.430;2023-10-09T03:03:23;15.80;99.90
43673;DHT22;41723;49.326;8.430;2023-10-09T03:05:50;15.80;99.90
43673;DHT22;41723;49.326;8.430;2023-10-09T03:08:16;15.90;99.90
43673;DHT22;41723;49.326;8.430;2023-10-09T03:10:44;16.00;99.90
43673;DHT22;41723;49.326;8.430;2023-10-09T03:13:10;16.00;99.90
43673;DHT22;41723;49.326;8.430;2023-10-09T03:15:38;16.00;99.90
43673;DHT22;41723;49.326;8.430;2023-10-09T03:18:04;15.90;99.90
43673;DHT22;41723;49.326;8.430;2023-10-09T03:20:33;15.90;99.90
43673;DHT22;41723;49.326;8.430;2023-10-09T03:23:00;15.90;99.90
43673;DHT22;41723;49.326;8.430;2023-10-09T03:25:27;15.90;99.90
43673;DHT22;41723;49.326;8.430;2023-10-09T03:27:53;16.00;99.90
43673;DHT22;41723;49.326;8.430;2023-10-09T03:30:21;15.90;99.90
43673;DHT22;41723;49.326;8.430;2023-10-09T03:32:50;15.90;99.90
43673;DHT22;41723;49.326;8.430;2023-10-09T03:35:17;15.80;99.90
43673;DHT22;41723;49.326;8.430;2023-10-09T03:37:50;15.80;99.90
43673;DHT22;41723;49.326;8.430;2023-10-09T03:40:15;15.80;99.90
43673;DHT22;41723;49.326;8.430;2023-10-09T03:42:44;15.90;99.90
43673;DHT22;41723;49.326;8.430;2023-10-09T03:45:09;15.90;99.90
43673;DHT22;41723;49.326;8.430;2023-10-09T03:47:53;15.80;99.90
43673;DHT22;41723;49.326;8.430;2023-10-09T03:50:40;15.80;99.90
43673;DHT22;41723;49.326;8.430;2023-10-09T03:53:08;15.80;99.90
43673;DHT22;41723;49.326;8.430;2023-10-09T03:55:37;15.90;99.90
43673;DHT22;41723;49.326;8.430;2023-10-09T03:58:08;15.80;99.90
43673;DHT22;41723;49.326;8.430;2023-10-09T04:00:37;15.80;99.90
43673;DHT22;41723;49.326;8.430;2023-10-09T04:03:11;15.90;99.90
43673;DHT22;41723;49.326;8.430;2023-10-09T04:05:39;15.90;99.90
43673;DHT22;41723;49.326;8.430;2023-10-09T04:08:09;15.90;99.90
43673;DHT22;41723;49.326;8.430;2023-10-09T04:10:55;15.90;99.90
43673;DHT22;41723;49.326;8.430;2023-10-09T04:13:27;15.90;99.90
43673;DHT22;41723;49.326;8.430;2023-10-09T04:15:59;15.90;99.90
43673;DHT22;41723;49.326;8.430;2023-10-09T04:18:28;15.90;99.90
43673;DHT22;41723;49.326;8.430;2023-10-09T04:20:58;15.80;99.90
43673;DHT22;41723;49.326;8.430;2023-10-09T04:23:44;15.80;99.90
43673;DHT22;41723;49.326;8.430;2023-10-09T04:26:25;15.90;99.90
43673;DHT22;41723;49.326;8.430;2023-10-09T04:28:51;15.90;99.90
43673;DHT22;41723;49.326;8.430;2023-10-09T04:31:18;15.90;99.90
43673;DHT22;41723;49.326;8.430;2023-10-09T04:33:47;15.90;99.90
43673;DHT22;41723;49.326;8.430;2023-10-09T04:36:32;15.90;99.90
43673;DHT22;41723;49.326;8.430;2023-10-09T04:39:11;15.80;99.90
43673;DHT22;41723;49.326;8.430;2023-10-09T04:41:37;15.80;99.90
43673;DHT22;41723;49.326;8.430;2023-10-09T04:44:11;15.80;99.90
43673;DHT22;41723;49.326;8.430;2023-10-09T04:46:46;15.80;99.90
43673;DHT22;41723;49.326;8.430;2023-10-09T04:49:31;15.80;99.90
43673;DHT22;41723;49.326;8.430;2023-10-09T04:52:11;15.90;99.90
43673;DHT22;41723;49.326;8.430;2023-10-09T04:54:45;15.80;99.90
43673;DHT22;41723;49.326;8.430;2023-10-09T04:57:29;15.80;99.90
43673;DHT22;41723;49.326;8.430;2023-10-09T04:59:55;15.70;99.90
43673;DHT22;41723;49.326;8.430;2023-10-09T05:02:24;15.80;99.90
43673;DHT22;41723;49.326;8.430;2023-10-09T05:04:49;15.80;99.90
43673;DHT22;41723;49.326;8.430;2023-10-09T05:07:35;15.80;99.90
43673;DHT22;41723;49.326;8.430;2023-10-09T05:10:19;15.90;99.90
43673;DHT22;41723;49.326;8.430;2023-10-09T05:12:50;16.00;99.90
43673;DHT22;41723;49.326;8.430;2023-10-09T05:15:25;16.00;99.90
43673;DHT22;41723;49.326;8.430;2023-10-09T05:17:55;15.80;99.90
43673;DHT22;41723;49.326;8.430;2023-10-09T05:20:34;15.80;99.90
43673;DHT22;41723;49.326;8.430;2023-10-09T05:23:18;15.90;99.90
43673;DHT22;41723;49.326;8.430;2023-10-09T05:25:51;16.00;99.90
43673;DHT22;41723;49.326;8.430;2023-10-09T05:28:21;16.00;99.90
43673;DHT22;41723;49.326;8.430;2023-10-09T05:31:07;16.00;99.90
43673;DHT22;41723;49.326;8.430;2023-10-09T05:33:37;16.00;99.90
43673;DHT22;41723;49.326;8.430;2023-10-09T05:36:03;15.90;99.90
43673;DHT22;41723;49.326;8.430;2023-10-09T05:38:52;16.00;99.90
43673;DHT22;41723;49.326;8.430;2023-10-09T05:41:27;15.90;99.90
43673;DHT22;41723;49.326;8.430;2023-10-09T05:44:31;16.00;99.90
43673;DHT22;41723;49.326;8.430;2023-10-09T05:47:15;16.00;99.90
43673;DHT22;41723;49.326;8.430;2023-10-09T05:49:59;16.10;99.90
43673;DHT22;41723;49.326;8.430;2023-10-09T05:52:34;15.90;99.90
43673;DHT22;41723;49.326;8.430;2023-10-09T05:55:06;15.80;99.90
43673;DHT22;41723;49.326;8.430;2023-10-09T05:57:54;15.80;99.90
43673;DHT22;41723;49.326;8.430;2023-10-09T06:00:38;15.90;99.90
43673;DHT22;41723;49.326;8.430;2023-10-09T06:03:23;16.00;99.90
43673;DHT22;41723;49.326;8.430;2023-10-09T06:08:30;15.90;99.90
43673;DHT22;41723;49.326;8.430;2023-10-09T06:11:09;15.90;99.90
43673;DHT22;41723;49.326;8.430;2023-10-09T06:13:53;16.00;99.90
43673;DHT22;41723;49.326;8.430;2023-10-09T06:16:37;16.00;99.90
43673;DHT22;41723;49.326;8.430;2023-10-09T06:19:25;16.00;99.90
43673;DHT22;41723;49.326;8.430;2023-10-09T06:21:54;16.00;99.90
43673;DHT22;41723;49.326;8.430;2023-10-09T06:24:30;16.10;99.90
43673;DHT22;41723;49.326;8.430;2023-10-09T06:26:59;16.00;99.90
43673;DHT22;41723;49.326;8.430;2023-10-09T06:29:27;16.10;99.90
43673;DHT22;41723;49.326;8.430;2023-10-09T06:32:06;16.20;99.90
43673;DHT22;41723;49.326;8.430;2023-10-09T06:34:44;16.30;99.90
43673;DHT22;41723;49.326;8.430;2023-10-09T06:37:25;16.20;99.90
43673;DHT22;41723;49.326;8.430;2023-10-09T06:39:51;16.20;99.90
43673;DHT22;41723;49.326;8.430;2023-10-09T06:42:36;16.20;99.90
43673;DHT22;41723;49.326;8.430;2023-10-09T06:45:07;16.20;99.90
43673;DHT22;41723;49.326;8.430;2023-10-09T06:47:49;16.20;99.90
43673;DHT22;41723;49.326;8.430;2023-10-09T06:50:24;16.20;99.90
43673;DHT22;41723;49.326;8.430;2023-10-09T06:52:50;16.20;99.90
43673;DHT22;41723;49.326;8.430;2023-10-09T06:55:38;16.20;99.90
43673;DHT22;41723;49.326;8.430;2023-10-09T06:58:26;16.20;99.90
43673;DHT22;41723;49.326;8.430;2023-10-09T07:01:07;16.20;99.90
43673;DHT22;41723;49.326;8.430;2023-10-09T07:03:45;16.10;99.90
43673;DHT22;41723;49.326;8.430;2023-10-09T07:06:20;16.10;99.90
43673;DHT22;41723;49.326;8.430;2023-10-09T07:08:52;16.10;99.90
43673;DHT22;41723;49.326;8.430;2023-10-09T07:11:33;16.10;99.90
43673;DHT22;41723;49.326;8.430;2023-10-09T07:19:30;16.20;99.90
43673;DHT22;41723;49.326;8.430;2023-10-09T07:22:08;16.30;99.90
43673;DHT22;41723;49.326;8.430;2023-10-09T07:27:24;16.30;99.90
43673;DHT22;41723;49.326;8.430;2023-10-09T07:30:09;16.30;99.90
43673;DHT22;41723;49.326;8.430;2023-10-09T07:32:54;16.40;99.90
43673;DHT22;41723;49.326;8.430;2023-10-09T07:35:20;16.30;99.90
43673;DHT22;41723;49.326;8.430;2023-10-09T07:38:06;16.40;99.90
43673;DHT22;41723;49.326;8.430;2023-10-09T07:40:35;16.40;99.90
43673;DHT22;41723;49.326;8.430;2023-10-09T07:43:18;16.40;99.90
43673;DHT22;41723;49.326;8.430;2023-10-09T07:45:44;16.50;99.90
43673;DHT22;41723;49.326;8.430;2023-10-09T07:48:15;16.50;99.90
43673;DHT22;41723;49.326;8.430;2023-10-09T07:50:41;16.50;99.90
43673;DHT22;41723;49.326;8.430;2023-10-09T07:53:16;16.60;99.90
43673;DHT22;41723;49.326;8.430;2023-10-09T07:55:55;16.60;99.90
43673;DHT22;41723;49.326;8.430;2023-10-09T07:58:27;16.60;99.90
43673;DHT22;41723;49.326;8.430;2023-10-09T08:00:54;16.60;99.90
43673;DHT22;41723;49.326;8.430;2023-10-09T08:03:36;16.70;99.90
43673;DHT22;41723;49.326;8.430;2023-10-09T08:06:02;16.70;99.90
43673;DHT22;41723;49.326;8.430;2023-10-09T08:08:46;16.70;99.90
43673;DHT22;41723;49.326;8.430;2023-10-09T08:11:31;16.80;99.90
43673;DHT22;41723;49.326;8.430;2023-10-09T08:14:06;16.80;99.90
43673;DHT22;41723;49.326;8.430;2023-10-09T08:16:50;16.90;99.90
43673;DHT22;41723;49.326;8.430;2023-10-09T08:19:36;16.90;99.90
43673;DHT22;41723;49.326;8.430;2023-10-09T08:22:17;17.00;99.90
43673;DHT22;41723;49.326;8.430;2023-10-09T08:25:03;17.00;99.90
43673;DHT22;41723;49.326;8.430;2023-10-09T08:27:29;17.00;99.90
43673;DHT22;41723;49.326;8.430;2023-10-09T08:30:05;17.10;99.90
43673;DHT22;41723;49.326;8.430;2023-10-09T08:32:46;17.10;99.90
43673;DHT22;41723;49.326;8.430;2023-10-09T08:35:33;17.20;99.90
43673;DHT22;41723;49.326;8.430;2023-10-09T08:37:59;17.30;99.90
43673;DHT22;41723;49.326;8.430;2023-10-09T08:40:39;17.50;99.90
43673;DHT22;41723;49.326;8.430;2023-10-09T08:43:09;17.50;99.90
43673;DHT22;41723;49.326;8.430;2023-10-09T08:45:38;17.60;99.90
43673;DHT22;41723;49.326;8.430;2023-10-09T08:48:09;17.70;99.90
43673;DHT22;41723;49.326;8.430;2023-10-09T08:50:44;17.80;99.90
43673;DHT22;41723;49.326;8.430;2023-10-09T08:53:10;17.80;99.90
43673;DHT22;41723;49.326;8.430;2023-10-09T08:55:36;17.90;99.90
43673;DHT22;41723;49.326;8.430;2023-10-09T08:58:02;18.00;99.90
43673;DHT22;41723;49.326;8.430;2023-10-09T09:00:37;18.00;99.90
43673;DHT22;41723;49.326;8.430;2023-10-09T09:03:04;18.10;99.90
43673;DHT22;41723;49.326;8.430;2023-10-09T09:05:30;18.20;99.90
43673;DHT22;41723;49.326;8.430;2023-10-09T09:07:56;18.30;99.90
43673;DHT22;41723;49.326;8.430;2023-10-09T09:10:28;18.30;99.90
43673;DHT22;41723;49.326;8.430;2023-10-09T09:13:02;18.40;99.90
43673;DHT22;41723;49.326;8.430;2023-10-09T09:15:29;18.40;99.90
43673;DHT22;41723;49.326;8.430;2023-10-09T09:18:05;18.50;99.90
43673;DHT22;41723;49.326;8.430;2023-10-09T09:20:31;18.60;99.90
43673;DHT22;41723;49.326;8.430;2023-10-09T09:23:02;18.70;99.90
43673;DHT22;41723;49.326;8.430;2023-10-09T09:25:47;18.80;99.90
43673;DHT22;41723;49.326;8.430;2023-10-09T09:28:26;18.80;99.90
43673;DHT22;41723;49.326;8.430;2023-10-09T09:31:07;18.90;99.90
43673;DHT22;41723;49.326;8.430;2023-10-09T09:33:39;19.00;99.90
43673;DHT22;41723;49.326;8.430;2023-10-09T09:36:13;19.00;99.90
43673;DHT22;41723;49.326;8.430;2023-10-09T09:38:39;19.10;99.90
43673;DHT22;41723;49.326;8.430;2023-10-09T09:41:13;19.10;99.90
43673;DHT22;41723;49.326;8.430;2023-10-09T09:43:48;19.10;99.90
43673;DHT22;41723;49.326;8.430;2023-10-09T09:46:16;19.20;99.90
43673;DHT22;41723;49.326;8.430;2023-10-09T09:48:43;19.20;99.90
43673;DHT22;41723;49.326;8.430;2023-10-09T09:51:13;19.20;99.90
43673;DHT22;41723;49.326;8.430;2023-10-09T09:53:43;19.20;99.90
43673;DHT22;41723;49.326;8.430;2023-10-09T09:56:14;19.30;99.90
43673;DHT22;41723;49.326;8.430;2023-10-09T09:58:43;19.30;99.90
43673;DHT22;41723;49.326;8.430;2023-10-09T10:01:09;19.40;99.90
43673;DHT22;41723;49.326;8.430;2023-10-09T10:03:47;19.40;99.90
43673;DHT22;41723;49.326;8.430;2023-10-09T10:06:13;19.50;99.90
43673;DHT22;41723;49.326;8.430;2023-10-09T10:08:41;19.50;99.90
43673;DHT22;41723;49.326;8.430;2023-10-09T10:11:07;19.50;99.90
43673;DHT22;41723;49.326;8.430;2023-10-09T10:16:11;19.60;99.90
43673;DHT22;41723;49.326;8.430;2023-10-09T10:18:56;19.70;99.90
43673;DHT22;41723;49.326;8.430;2023-10-09T10:21:28;19.70;99.90
43673;DHT22;41723;49.326;8.430;2023-10-09T10:24:03;19.70;99.90
43673;DHT22;41723;49.326;8.430;2023-10-09T10:26:31;19.60;99.90
43673;DHT22;41723;49.326;8.430;2023-10-09T10:29:15;19.60;99.90
43673;DHT22;41723;49.326;8.430;2023-10-09T10:31:51;19.60;99.90
43673;DHT22;41723;49.326;8.430;2023-10-09T10:34:17;19.60;99.90
43673;DHT22;41723;49.326;8.430;2023-10-09T10:36:52;19.60;99.90
43673;DHT22;41723;49.326;8.430;2023-10-09T10:39:24;19.60;99.90
43673;DHT22;41723;49.326;8.430;2023-10-09T10:42:08;19.60;99.90
43673;DHT22;41723;49.326;8.430;2023-10-09T10:44:54;19.60;99.90
43673;DHT22;41723;49.326;8.430;2023-10-09T10:47:24;19.60;99.90
43673;DHT22;41723;49.326;8.430;2023-10-09T10:49:57;19.60;99.90
43673;DHT22;41723;49.326;8.430;2023-10-09T10:52:24;19.70;99.90
43673;DHT22;41723;49.326;8.430;2023-10-09T10:55:10;19.70;99.90
43673;DHT22;41723;49.326;8.430;2023-10-09T10:57:44;19.80;99.90
43673;DHT22;41723;49.326;8.430;2023-10-09T11:00:19;19.80;99.90
43673;DHT22;41723;49.326;8.430;2023-10-09T11:03:03;19.80;99.90
43673;DHT22;41723;49.326;8.430;2023-10-09T11:06:00;19.80;99.90
43673;DHT22;41723;49.326;8.430;2023-10-09T11:08:38;19.80;99.90
43673;DHT22;41723;49.326;8.430;2023-10-09T11:11:15;19.80;99.90
43673;DHT22;41723;49.326;8.430;2023-10-09T11:13:41;19.90;99.90
43673;DHT22;41723;49.326;8.430;2023-10-09T11:16:23;19.90;99.90
43673;DHT22;41723;49.326;8.430;2023-10-09T11:19:01;20.00;99.90
43673;DHT22;41723;49.326;8.430;2023-10-09T11:21:38;20.10;99.90
43673;DHT22;41723;49.326;8.430;2023-10-09T11:24:07;20.20;99.90
43673;DHT22;41723;49.326;8.430;2023-10-09T11:26:51;20.40;99.90
43673;DHT22;41723;49.326;8.430;2023-10-09T11:29:21;20.60;99.90
43673;DHT22;41723;49.326;8.430;2023-10-09T11:32:06;20.80;99.90
43673;DHT22;41723;49.326;8.430;2023-10-09T11:34:34;21.10;99.90
43673;DHT22;41723;49.326;8.430;2023-10-09T11:37:02;21.20;99.80
43673;DHT22;41723;49.326;8.430;2023-10-09T11:39:30;21.10;99.60
43673;DHT22;41723;49.326;8.430;2023-10-09T11:42:18;21.20;99.30
43673;DHT22;41723;49.326;8.430;2023-10-09T11:45:01;21.40;99.20
43673;DHT22;41723;49.326;8.430;2023-10-09T11:47:36;21.50;99.30
43673;DHT22;41723;49.326;8.430;2023-10-09T11:50:11;21.40;98.70
43673;DHT22;41723;49.326;8.430;2023-10-09T11:52:58;21.40;98.40
43673;DHT22;41723;49.326;8.430;2023-10-09T11:55:42;21.40;98.40
43673;DHT22;41723;49.326;8.430;2023-10-09T11:58:14;21.40;98.30
43673;DHT22;41723;49.326;8.430;2023-10-09T12:00:40;21.30;98.00
43673;DHT22;41723;49.326;8.430;2023-10-09T12:03:11;21.30;98.20
43673;DHT22;41723;49.326;8.430;2023-10-09T12:05:38;21.30;98.50
43673;DHT22;41723;49.326;8.430;2023-10-09T12:08:08;21.20;98.60
43673;DHT22;41723;49.326;8.430;2023-10-09T12:10:34;21.30;98.00
43673;DHT22;41723;49.326;8.430;2023-10-09T12:12:59;21.50;98.10
43673;DHT22;41723;49.326;8.430;2023-10-09T12:15:30;21.90;98.10
43673;DHT22;41723;49.326;8.430;2023-10-09T12:18:04;22.20;97.60
43673;DHT22;41723;49.326;8.430;2023-10-09T12:20:32;22.40;97.20
43673;DHT22;41723;49.326;8.430;2023-10-09T12:22:58;22.60;96.90
43673;DHT22;41723;49.326;8.430;2023-10-09T12:25:24;22.60;96.40
43673;DHT22;41723;49.326;8.430;2023-10-09T12:27:50;22.50;96.40
43673;DHT22;41723;49.326;8.430;2023-10-09T12:30:19;22.60;96.20
43673;DHT22;41723;49.326;8.430;2023-10-09T12:33:01;22.90;95.80
43673;DHT22;41723;49.326;8.430;2023-10-09T12:35:27;23.00;95.80
43673;DHT22;41723;49.326;8.430;2023-10-09T12:37:59;23.20;95.90
43673;DHT22;41723;49.326;8.430;2023-10-09T12:40:25;23.30;95.20
43673;DHT22;41723;49.326;8.430;2023-10-09T12:42:54;23.30;95.40
43673;DHT22;41723;49.326;8.430;2023-10-09T12:45:21;23.50;95.20
43673;DHT22;41723;49.326;8.430;2023-10-09T12:47:53;23.50;95.20
43673;DHT22;41723;49.326;8.430;2023-10-09T12:50:27;23.60;95.10
43673;DHT22;41723;49.326;8.430;2023-10-09T12:52:56;23.50;94.80
43673;DHT22;41723;49.326;8.430;2023-10-09T12:55:27;23.60;94.80
43673;DHT22;41723;49.326;8.430;2023-10-09T12:57:59;23.60;94.80
43673;DHT22;41723;49.326;8.430;2023-10-09T13:00:26;23.60;94.70
43673;DHT22;41723;49.326;8.430;2023-10-09T13:02:52;23.70;94.60
43673;DHT22;41723;49.326;8.430;2023-10-09T13:05:17;23.70;94.50
43673;DHT22;41723;49.326;8.430;2023-10-09T13:07:52;23.80;94.40
43673;DHT22;41723;49.326;8.430;2023-10-09T13:10:19;23.80;94.00
43673;DHT22;41723;49.326;8.430;2023-10-09T13:12:44;23.80;93.90
43673;DHT22;41723;49.326;8.430;2023-10-09T13:15:10;23.80;93.90
43673;DHT22;41723;49.326;8.430;2023-10-09T13:17:36;23.80;93.40
43673;DHT22;41723;49.326;8.430;2023-10-09T13:20:03;23.70;93.90
43673;DHT22;41723;49.326;8.430;2023-10-09T13:22:38;23.70;93.40
43673;DHT22;41723;49.326;8.430;2023-10-09T13:25:05;23.60;93.20
43673;DHT22;41723;49.326;8.430;2023-10-09T13:27:30;23.60;93.00
43673;DHT22;41723;49.326;8.430;2023-10-09T13:30:02;23.50;93.10
43673;DHT22;41723;49.326;8.430;2023-10-09T13:32:33;23.40;92.70
43673;DHT22;41723;49.326;8.430;2023-10-09T13:35:03;23.50;92.40
43673;DHT22;41723;49.326;8.430;2023-10-09T13:37:29;23.40;92.20
43673;DHT22;41723;49.326;8.430;2023-10-09T13:39:57;23.40;91.70
43673;DHT22;41723;49.326;8.430;2023-10-09T13:42:23;23.50;91.50
43673;DHT22;41723;49.326;8.430;2023-10-09T13:44:51;23.50;91.40
43673;DHT22;41723;49.326;8.430;2023-10-09T13:47:19;23.50;91.30
43673;DHT22;41723;49.326;8.430;2023-10-09T13:49:46;23.40;91.20
43673;DHT22;41723;49.326;8.430;2023-10-09T13:52:16;23.40;91.30
43673;DHT22;41723;49.326;8.430;2023-10-09T13:54:44;23.30;91.40
43673;DHT22;41723;49.326;8.430;2023-10-09T13:57:13;23.40;91.30
43673;DHT22;41723;49.326;8.430;2023-10-09T13:59:40;23.30;91.60
43673;DHT22;41723;49.326;8.430;2023-10-09T14:02:14;23.30;91.30
43673;DHT22;41723;49.326;8.430;2023-10-09T14:04:44;23.30;91.30
43673;DHT22;41723;49.326;8.430;2023-10-09T14:07:10;23.30;91.10
43673;DHT22;41723;49.326;8.430;2023-10-09T14:09:36;23.30;91.20
43673;DHT22;41723;49.326;8.430;2023-10-09T14:12:10;23.30;91.10
43673;DHT22;41723;49.326;8.430;2023-10-09T14:14:40;23.30;91.20
43673;DHT22;41723;49.326;8.430;2023-10-09T14:17:12;23.30;91.20
43673;DHT22;41723;49.326;8.430;2023-10-09T14:19:42;23.30;91.10
43673;DHT22;41723;49.326;8.430;2023-10-09T14:22:13;23.40;91.30
43673;DHT22;41723;49.326;8.430;2023-10-09T14:24:41;23.40;91.30
43673;DHT22;41723;49.326;8.430;2023-10-09T14:27:16;23.50;91.20
43673;DHT22;41723;49.326;8.430;2023-10-09T14:29:45;23.40;91.30
43673;DHT22;41723;49.326;8.430;2023-10-09T14:32:11;23.40;91.30
43673;DHT22;41723;49.326;8.430;2023-10-09T14:34:38;23.40;91.20
43673;DHT22;41723;49.326;8.430;2023-10-09T14:37:11;23.40;90.70
43673;DHT22;41723;49.326;8.430;2023-10-09T14:39:40;23.40;90.40
43673;DHT22;41723;49.326;8.430;2023-10-09T14:42:07;23.40;90.00
43673;DHT22;41723;49.326;8.430;2023-10-09T14:44:35;23.40;90.30
43673;DHT22;41723;49.326;8.430;2023-10-09T14:47:03;23.40;90.30
43673;DHT22;41723;49.326;8.430;2023-10-09T14:49:31;23.40;90.40
43673;DHT22;41723;49.326;8.430;2023-10-09T14:52:00;23.30;90.10
43673;DHT22;41723;49.326;8.430;2023-10-09T14:54:26;23.20;90.40
43673;DHT22;41723;49.326;8.430;2023-10-09T14:56:53;23.30;90.00
43673;DHT22;41723;49.326;8.430;2023-10-09T14:59:20;23.20;90.20
43673;DHT22;41723;49.326;8.430;2023-10-09T15:01:47;23.20;90.30
43673;DHT22;41723;49.326;8.430;2023-10-09T15:04:19;23.20;90.40
43673;DHT22;41723;49.326;8.430;2023-10-09T15:06:45;23.20;90.80
43673;DHT22;41723;49.326;8.430;2023-10-09T15:09:13;23.10;90.70
43673;DHT22;41723;49.326;8.430;2023-10-09T15:11:47;23.10;90.80
43673;DHT22;41723;49.326;8.430;2023-10-09T15:14:14;23.00;91.10
43673;DHT22;41723;49.326;8.430;2023-10-09T15:16:39;23.00;91.00
43673;DHT22;41723;49.326;8.430;2023-10-09T15:19:08;23.00;91.00
43673;DHT22;41723;49.326;8.430;2023-10-09T15:21:36;22.90;91.30
43673;DHT22;41723;49.326;8.430;2023-10-09T15:24:09;22.90;91.00
43673;DHT22;41723;49.326;8.430;2023-10-09T15:26:38;22.90;90.60
43673;DHT22;41723;49.326;8.430;2023-10-09T15:29:03;22.90;90.90
43673;DHT22;41723;49.326;8.430;2023-10-09T15:31:32;22.80;90.80
43673;DHT22;41723;49.326;8.430;2023-10-09T15:33:58;22.80;90.80
43673;DHT22;41723;49.326;8.430;2023-10-09T15:36:24;22.80;90.60
43673;DHT22;41723;49.326;8.430;2023-10-09T15:38:54;22.80;90.80
43673;DHT22;41723;49.326;8.430;2023-10-09T15:41:28;22.80;90.90
43673;DHT22;41723;49.326;8.430;2023-10-09T15:43:57;22.80;90.70
43673;DHT22;41723;49.326;8.430;2023-10-09T15:46:23;22.80;90.70
43673;DHT22;41723;49.326;8.430;2023-10-09T15:48:48;22.80;91.00
43673;DHT22;41723;49.326;8.430;2023-10-09T15:51:16;22.70;91.10
43673;DHT22;41723;49.326;8.430;2023-10-09T15:53:42;22.70;91.30
43673;DHT22;41723;49.326;8.430;2023-10-09T15:56:08;22.70;91.30
43673;DHT22;41723;49.326;8.430;2023-10-09T15:58:38;22.60;91.30
43673;DHT22;41723;49.326;8.430;2023-10-09T16:01:14;22.60;91.50
43673;DHT22;41723;49.326;8.430;2023-10-09T16:03:41;22.60;91.80
43673;DHT22;41723;49.326;8.430;2023-10-09T16:06:07;22.50;91.70
43673;DHT22;41723;49.326;8.430;2023-10-09T16:08:38;22.50;92.00
43673;DHT22;41723;49.326;8.430;2023-10-09T16:11:04;22.40;92.20
43673;DHT22;41723;49.326;8.430;2023-10-09T16:13:30;22.40;92.00
43673;DHT22;41723;49.326;8.430;2023-10-09T16:15:55;22.40;91.90
43673;DHT22;41723;49.326;8.430;2023-10-09T16:18:25;22.30;92.20